Time;durP1;ratioP1;P1;durP2;ratioP2;P2;SDS_P1;SDS_P2;PMS_P1;PMS_P2;Temp;Humidity;BMP_temperature;BMP_pressure;BME280_temperature;BME280_humidity;BME280_pressure;Samples;Min_cycle;Max_cycle;Signal;HPM_P1;HPM_P2
2023/01/16 00:00:29;;;;;;;19.08;11.57;;;;;;;1.52;99.26;93287.59;5028800;28;20029;-39
2023/01/16 00:02:54;;;;;;;21.40;12.30;;;;;;;1.33;99.62;93292.03;5029281;28;20028;-40
2023/01/16 00:05:20;;;;;;;17.05;9.73;;;;;;;1.62;99.72;93287.34;5028751;28;20029;-39
2023/01/16 00:07:45;;;;;;;17.98;10.70;;;;;;;1.63;98.66;93286.09;5028912;28;20033;-39
2023/01/16 00:10:11;;;;;;;17.27;10.50;;;;;;;1.58;99.52;93278.72;5028903;28;20513;-39
2023/01/16 00:12:37;;;;;;;16.92;10.63;;;;;;;1.51;100.00;93285.38;5029447;28;20033;-39
2023/01/16 00:15:03;;;;;;;16.80;9.85;;;;;;;1.60;99.45;93292.56;5028387;28;20033;-39
2023/01/16 00:17:28;;;;;;;20.25;11.55;;;;;;;1.48;100.00;93289.81;5028920;28;20022;-39
2023/01/16 00:19:54;;;;;;;14.50;9.02;;;;;;;1.59;100.00;93297.25;5028461;28;20029;-39
2023/01/16 00:22:19;;;;;;;17.05;11.05;;;;;;;1.64;99.51;93293.78;5029207;28;20058;-39
2023/01/16 00:24:45;;;;;;;18.33;10.90;;;;;;;1.71;99.62;93293.28;5029060;28;20497;-39
2023/01/16 00:27:10;;;;;;;17.45;10.23;;;;;;;1.67;99.12;93292.06;5028673;28;20033;-39
2023/01/16 00:29:35;;;;;;;16.15;10.15;;;;;;;1.78;98.46;93292.78;5027996;28;20401;-39
2023/01/16 00:32:01;;;;;;;16.00;9.57;;;;;;;1.78;97.72;93295.50;5028426;28;20053;-40
2023/01/16 00:34:26;;;;;;;18.08;9.27;;;;;;;1.80;98.28;93295.75;5029082;28;20028;-39
2023/01/16 00:36:52;;;;;;;17.40;9.40;;;;;;;1.78;97.62;93290.06;5048061;28;20060;-39
2023/01/16 00:39:17;;;;;;;20.73;10.93;;;;;;;1.90;97.24;93288.09;5034518;28;20033;-39
2023/01/16 00:41:42;;;;;;;16.50;10.30;;;;;;;1.94;97.16;93288.56;5027948;28;20037;-39
2023/01/16 00:44:08;;;;;;;20.55;12.63;;;;;;;1.94;97.07;93283.13;5028456;28;20029;-39
2023/01/16 00:46:33;;;;;;;25.35;12.77;;;;;;;1.82;98.08;93276.22;5027777;28;20021;-39
2023/01/16 00:48:59;;;;;;;14.75;10.68;;;;;;;1.97;98.08;93261.09;5027262;28;20036;-40
2023/01/16 00:51:24;;;;;;;22.38;11.90;;;;;;;2.01;96.86;93269.00;5027354;28;20029;-39
2023/01/16 00:53:50;;;;;;;20.20;11.70;;;;;;;2.07;97.11;93267.00;5028361;28;20037;-40
2023/01/16 00:56:15;;;;;;;22.02;13.32;;;;;;;2.07;97.25;93267.75;5027960;28;20072;-40
2023/01/16 00:58:40;;;;;;;25.77;13.45;;;;;;;2.13;96.61;93267.75;5028078;28;20025;-40
2023/01/16 01:01:06;;;;;;;20.58;12.68;;;;;;;2.05;96.96;93258.59;5027550;28;20029;-39
2023/01/16 01:03:32;;;;;;;19.58;11.55;;;;;;;2.05;97.34;93264.81;5028400;28;20095;-39
2023/01/16 01:05:57;;;;;;;16.73;10.25;;;;;;;2.10;97.48;93261.31;5027907;28;20536;-39
2023/01/16 01:08:23;;;;;;;17.20;10.65;;;;;;;2.18;95.85;93256.09;5027668;28;20545;-39
2023/01/16 01:10:48;;;;;;;16.13;10.45;;;;;;;2.17;95.13;93255.34;5027457;28;20017;-40
2023/01/16 01:13:14;;;;;;;18.27;11.45;;;;;;;2.12;94.75;93244.50;5028335;28;20021;-39
2023/01/16 01:15:39;;;;;;;14.63;9.68;;;;;;;2.12;95.53;93249.94;5027594;28;20029;-39
2023/01/16 01:18:05;;;;;;;15.50;9.65;;;;;;;2.19;94.87;93239.25;5027427;28;20025;-39
2023/01/16 01:20:31;;;;;;;16.38;10.05;;;;;;;2.21;94.32;93225.88;5027236;28;20033;-39
2023/01/16 01:22:56;;;;;;;19.92;10.95;;;;;;;2.12;94.86;93231.59;5027645;28;20041;-39
2023/01/16 01:25:22;;;;;;;16.33;11.05;;;;;;;2.12;95.39;93228.88;5027533;28;20036;-39
2023/01/16 01:27:47;;;;;;;16.77;9.73;;;;;;;2.10;95.94;93236.81;5026419;28;20645;-40
2023/01/16 01:30:13;;;;;;;16.98;8.95;;;;;;;2.25;95.50;93237.25;5027057;28;20032;-39
2023/01/16 01:32:39;;;;;;;17.77;10.18;;;;;;;2.17;94.89;93238.25;5027759;28;20025;-39
2023/01/16 01:35:06;;;;;;;17.35;10.15;;;;;;;2.20;95.37;93235.31;5032722;28;20056;-39
2023/01/16 01:37:31;;;;;;;16.35;10.43;;;;;;;2.14;95.43;93231.84;5047260;28;20029;-40
2023/01/16 01:39:57;;;;;;;16.25;10.38;;;;;;;2.15;95.52;93219.72;5028227;28;20052;-40
2023/01/16 01:45:26;;;;;;;23.50;12.35;;;;;;;2.20;96.01;93235.31;5026818;28;20028;-39
2023/01/16 01:48:12;;;;;;;22.98;11.10;;;;;;;2.20;95.76;93229.84;5027094;28;20025;-39
2023/01/16 01:50:45;;;;;;;21.38;12.60;;;;;;;2.33;95.73;93234.00;5026947;28;20021;-39
2023/01/16 01:53:42;;;;;;;22.80;11.98;;;;;;;2.21;95.68;93225.13;5027416;28;20025;-39
2023/01/16 01:56:13;;;;;;;22.52;13.38;;;;;;;2.27;95.82;93239.50;5023669;28;20049;-40
2023/01/16 01:58:39;;;;;;;20.42;10.32;;;;;;;2.36;95.55;93233.03;5025820;28;20475;-39
2023/01/16 02:01:04;;;;;;;16.05;10.80;;;;;;;2.39;94.92;93229.28;5025607;28;20037;-39
2023/01/16 02:03:37;;;;;;;23.73;13.43;;;;;;;2.41;94.47;93224.81;5027162;28;20033;-40
2023/01/16 02:06:07;;;;;;;15.40;9.57;;;;;;;2.37;94.07;93212.69;5025860;28;20037;-39
2023/01/16 02:08:34;;;;;;;17.42;10.13;;;;;;;2.38;94.68;93214.94;5027229;28;20064;-40
2023/01/16 02:11:25;;;;;;;21.38;11.43;;;;;;;2.46;95.07;93215.13;5026844;28;20171;-39
2023/01/16 02:14:00;;;;;;;19.80;11.02;;;;;;;2.41;93.85;93208.47;5025666;28;20040;-39
2023/01/16 02:19:19;;;;;;;23.83;9.60;;;;;;;2.40;94.19;93203.53;5026794;28;20040;-40
2023/01/16 02:21:59;;;;;;;13.38;8.13;;;;;;;2.53;93.71;93207.19;5026387;28;20021;-39
2023/01/16 02:24:31;;;;;;;16.63;10.45;;;;;;;2.30;93.98;93197.63;5027195;28;20452;-39
2023/01/16 02:27:15;;;;;;;19.00;10.35;;;;;;;2.25;94.39;93199.13;5026937;28;20056;-40
2023/01/16 02:30:17;;;;;;;16.83;10.65;;;;;;;2.25;95.38;93193.66;5033272;28;20111;-40
2023/01/16 02:32:46;;;;;;;16.52;9.00;;;;;;;2.35;94.91;93190.66;5046441;28;20114;-39
2023/01/16 02:35:33;;;;;;;17.87;10.37;;;;;;;2.33;94.45;93196.63;5040013;28;20085;-40
2023/01/16 02:38:13;;;;;;;15.48;9.10;;;;;;;2.32;94.52;93191.69;5026765;28;20411;-40
2023/01/16 02:41:06;;;;;;;16.67;9.55;;;;;;;2.35;94.34;93191.41;5029223;28;20795;-40
2023/01/16 02:43:36;;;;;;;16.90;9.88;;;;;;;2.21;94.06;93181.56;5030566;28;20029;-40
2023/01/16 02:46:10;;;;;;;13.65;9.35;;;;;;;2.12;94.98;93179.84;5030191;28;20413;-40
2023/01/16 02:48:45;;;;;;;17.00;9.38;;;;;;;2.09;94.99;93174.69;5028939;28;20033;-39
2023/01/16 02:51:28;;;;;;;20.75;10.55;;;;;;;2.13;94.94;93181.34;5030149;28;20028;-39
2023/01/16 02:54:02;;;;;;;11.32;7.00;;;;;;;2.18;93.34;93177.13;5028968;28;20030;-39
2023/01/16 02:56:33;;;;;;;13.50;8.90;;;;;;;2.02;93.59;93170.50;5029040;28;20524;-39
2023/01/16 02:58:59;;;;;;;16.92;10.57;;;;;;;1.80;95.66;93178.00;5028747;28;20022;-40
2023/01/16 03:01:24;;;;;;;15.90;10.15;;;;;;;1.70;96.99;93174.78;5028962;28;20036;-40
2023/01/16 03:04:03;;;;;;;20.67;10.38;;;;;;;1.77;97.94;93168.09;5030040;28;20781;-39
2023/01/16 03:06:49;;;;;;;15.00;9.45;;;;;;;1.72;97.71;93172.31;5030089;28;20509;-39
2023/01/16 03:09:38;;;;;;;17.52;10.02;;;;;;;1.63;98.12;93158.22;5028688;28;20029;-40
2023/01/16 03:12:22;;;;;;;17.25;10.43;;;;;;;1.79;97.73;93169.09;5028797;28;20107;-39
2023/01/16 03:14:59;;;;;;;13.82;8.00;;;;;;;1.67;96.85;93161.44;5030289;28;20420;-39
2023/01/16 03:17:34;;;;;;;13.52;8.48;;;;;;;1.61;96.97;93158.72;5028761;28;20032;-39
2023/01/16 03:20:10;;;;;;;13.05;8.75;;;;;;;1.51;97.49;93144.66;5029610;28;20735;-40
2023/01/16 03:22:44;;;;;;;13.73;8.45;;;;;;;1.53;98.49;93144.91;5028537;28;20034;-39
2023/01/16 03:25:32;;;;;;;15.85;9.23;;;;;;;1.47;98.14;93141.44;5030149;28;20045;-39
2023/01/16 03:28:39;;;;;;;15.38;9.15;;;;;;;1.35;99.76;93131.81;5028960;28;20083;-39
2023/01/16 03:31:19;;;;;;;17.25;9.35;;;;;;;1.45;98.56;93137.75;4991737;28;20228;-40
2023/01/16 03:34:08;;;;;;;14.15;9.48;;;;;;;1.38;99.11;93133.56;5008945;28;20084;-39
2023/01/16 03:37:26;;;;;;;16.67;8.80;;;;;;;1.41;98.92;93123.63;5044132;28;20060;-39
2023/01/16 03:39:57;;;;;;;13.27;8.77;;;;;;;1.34;100.00;93135.03;5027380;28;20056;-39
2023/01/16 03:42:32;;;;;;;17.05;9.80;;;;;;;1.38;99.92;93125.41;5028900;28;20116;-39
2023/01/16 03:45:03;;;;;;;15.18;8.68;;;;;;;1.37;100.00;93121.19;5028946;28;20029;-39
2023/01/16 03:47:38;;;;;;;14.50;8.95;;;;;;;1.31;100.00;93114.28;5028116;28;20703;-39
2023/01/16 03:50:06;;;;;;;13.30;9.00;;;;;;;1.41;99.71;93113.50;5026779;28;20033;-39
2023/01/16 03:52:44;;;;;;;14.13;8.73;;;;;;;1.29;99.43;93114.03;5027802;28;20029;-39
2023/01/16 03:55:21;;;;;;;15.82;9.43;;;;;;;1.22;100.00;93109.84;5028311;28;20095;-39
2023/01/16 03:57:54;;;;;;;15.45;9.43;;;;;;;1.33;99.33;93115.25;5027856;28;20509;-39
2023/01/16 04:00:20;;;;;;;13.77;9.05;;;;;;;1.41;98.94;93118.19;5027312;28;20040;-39
2023/01/16 04:03:07;;;;;;;17.92;9.70;;;;;;;1.55;97.54;93109.03;5029050;28;20108;-40
2023/01/16 04:06:08;;;;;;;16.88;8.45;;;;;;;1.41;98.09;93110.78;5027694;28;20037;-39
2023/01/16 04:08:36;;;;;;;21.85;10.88;;;;;;;1.30;99.53;93107.38;5005946;28;20072;-40
2023/01/16 04:11:03;;;;;;;20.73;12.10;;;;;;;1.33;100.00;93098.19;5027330;28;20042;-39
2023/01/16 04:13:32;;;;;;;22.88;11.98;;;;;;;1.27;100.00;93094.75;5028958;28;20398;-39
2023/01/16 04:16:00;;;;;;;20.08;10.90;;;;;;;1.21;100.00;93086.59;5027788;28;20034;-39
2023/01/16 04:18:30;;;;;;;17.38;10.18;;;;;;;1.26;100.00;93083.13;5028583;28;20029;-39
2023/01/16 04:20:56;;;;;;;15.20;9.13;;;;;;;1.39;100.00;93088.03;5028316;28;20033;-39
2023/01/16 04:23:21;;;;;;;22.88;9.65;;;;;;;1.29;100.00;93093.03;5028909;28;20040;-39
2023/01/16 04:25:46;;;;;;;19.80;11.30;;;;;;;1.29;100.00;93090.31;5028772;28;20029;-39
2023/01/16 04:28:12;;;;;;;15.18;8.85;;;;;;;1.50;100.00;93086.03;5027367;28;20047;-39
2023/01/16 04:30:37;;;;;;;13.23;8.45;;;;;;;1.56;100.00;93086.00;5028093;28;20497;-39
2023/01/16 04:33:04;;;;;;;15.20;9.82;;;;;;;1.36;100.00;93084.38;5028518;28;20410;-39
2023/01/16 04:35:30;;;;;;;13.82;7.28;;;;;;;1.56;100.00;93080.56;5037348;28;20111;-39
2023/01/16 04:37:55;;;;;;;14.52;8.40;;;;;;;1.46;99.53;93077.41;5045865;28;20495;-39
2023/01/16 04:40:21;;;;;;;12.45;8.27;;;;;;;1.36;99.27;93078.91;5027995;28;20021;-39
2023/01/16 04:42:46;;;;;;;14.88;9.00;;;;;;;1.34;99.57;93084.09;5028362;28;20079;-39
2023/01/16 04:45:11;;;;;;;16.48;9.20;;;;;;;1.25;99.97;93083.63;5028109;28;20040;-39
2023/01/16 04:47:37;;;;;;;14.77;8.82;;;;;;;1.34;100.00;93086.81;5028543;28;20030;-39
2023/01/16 04:50:03;;;;;;;19.95;10.05;;;;;;;1.26;100.00;93082.38;5028244;28;20022;-39
2023/01/16 04:52:28;;;;;;;14.18;8.32;;;;;;;1.17;100.00;93077.22;5028199;28;20033;-39
2023/01/16 04:54:54;;;;;;;14.55;8.88;;;;;;;1.29;99.76;93079.44;5028195;28;20013;-40
2023/01/16 04:57:19;;;;;;;17.38;10.23;;;;;;;1.14;100.00;93081.69;5028242;28;20851;-39
2023/01/16 04:59:44;;;;;;;18.48;10.85;;;;;;;1.01;100.00;93076.00;5027689;28;20038;-39
2023/01/16 05:02:10;;;;;;;23.60;13.40;;;;;;;1.03;100.00;93073.53;5028140;28;20025;-39
2023/01/16 05:04:36;;;;;;;26.60;14.15;;;;;;;1.02;100.00;93074.03;5028186;28;20524;-39
2023/01/16 05:07:01;;;;;;;22.20;14.25;;;;;;;1.06;100.00;93079.97;5028172;28;20124;-39
2023/01/16 05:09:27;;;;;;;22.50;11.85;;;;;;;0.94;100.00;93067.59;5027834;28;20516;-39
2023/01/16 05:11:52;;;;;;;17.73;10.85;;;;;;;0.81;100.00;93076.28;5027576;28;20033;-39
2023/01/16 05:14:17;;;;;;;22.27;12.43;;;;;;;0.81;100.00;93073.56;5027732;28;20025;-39
2023/01/16 05:16:43;;;;;;;15.77;9.95;;;;;;;0.75;100.00;93070.09;5027740;28;20032;-39
2023/01/16 05:19:09;;;;;;;21.73;13.00;;;;;;;0.70;100.00;93068.13;5027336;28;20025;-39
2023/01/16 05:21:35;;;;;;;19.33;12.57;;;;;;;0.70;100.00;93068.88;5027309;28;20110;-39
2023/01/16 05:24:01;;;;;;;15.95;10.45;;;;;;;0.77;100.00;93057.50;5027740;28;20056;-39
2023/01/16 05:26:26;;;;;;;18.85;10.57;;;;;;;0.73;100.00;93053.56;5027528;28;20777;-39
2023/01/16 05:28:52;;;;;;;15.45;9.90;;;;;;;0.69;99.70;93050.34;5027412;28;20025;-39
2023/01/16 05:31:17;;;;;;;16.48;10.27;;;;;;;0.67;99.79;93048.09;5027465;28;20037;-39
2023/01/16 05:33:43;;;;;;;19.52;10.02;;;;;;;0.56;100.00;93047.38;5027491;28;20034;-39
2023/01/16 05:36:08;;;;;;;21.35;11.07;;;;;;;0.59;100.00;93038.97;5041752;28;20430;-39
2023/01/16 05:38:34;;;;;;;18.15;10.50;;;;;;;0.57;100.00;93046.13;5047107;28;20020;-39
2023/01/16 05:40:59;;;;;;;22.73;13.70;;;;;;;0.49;100.00;93028.88;5046727;28;20118;-39
2023/01/16 05:43:25;;;;;;;21.63;13.77;;;;;;;0.62;100.00;93027.13;5047340;28;20039;-39
2023/01/16 05:45:50;;;;;;;28.65;17.30;;;;;;;0.73;100.00;93031.81;5036038;28;20030;-39
2023/01/16 05:48:16;;;;;;;25.17;13.25;;;;;;;0.59;100.00;93019.22;5026920;28;20017;-39
2023/01/16 05:50:41;;;;;;;18.63;11.45;;;;;;;0.60;100.00;93015.28;5027058;28;20029;-39
2023/01/16 05:53:07;;;;;;;20.25;11.95;;;;;;;0.61;100.00;93012.06;5027071;28;20032;-39
2023/01/16 05:55:40;;;;;;;19.88;11.10;;;;;;;0.66;100.00;92999.72;5026846;28;20026;-39
2023/01/16 05:58:06;;;;;;;17.92;11.07;;;;;;;0.80;100.00;92998.72;5025909;28;20035;-39
2023/01/16 06:00:31;;;;;;;22.88;12.18;;;;;;;0.82;100.00;92987.34;5027143;28;20026;-39
2023/01/16 06:02:57;;;;;;;17.30;10.50;;;;;;;0.92;100.00;92985.84;5026756;28;20441;-39
2023/01/16 06:05:22;;;;;;;19.45;10.50;;;;;;;1.01;100.00;92989.03;5027158;28;20114;-39
2023/01/16 06:07:48;;;;;;;17.35;9.73;;;;;;;1.19;100.00;92983.03;5026719;28;20033;-39
2023/01/16 06:10:15;;;;;;;20.52;10.95;;;;;;;1.06;100.00;92992.97;5026992;28;20032;-39
2023/01/16 06:12:40;;;;;;;24.70;13.68;;;;;;;1.09;100.00;92994.69;5026332;28;20123;-39
2023/01/16 06:15:07;;;;;;;24.73;12.85;;;;;;;1.19;100.00;92998.63;5026734;28;20063;-39
2023/01/16 06:17:32;;;;;;;21.98;10.85;;;;;;;1.33;100.00;92990.16;5026596;28;20039;-39
2023/01/16 06:19:59;;;;;;;18.80;10.57;;;;;;;1.41;99.53;92991.09;5025227;28;20026;-39
2023/01/16 06:22:26;;;;;;;15.90;8.02;;;;;;;1.66;97.98;92985.81;5026733;28;20022;-39
2023/01/16 06:24:51;;;;;;;18.70;10.07;;;;;;;1.70;96.32;92984.31;5026483;28;20041;-39
2023/01/16 06:27:17;;;;;;;23.45;11.88;;;;;;;1.42;97.45;92987.16;5026703;28;20378;-39
2023/01/16 06:29:43;;;;;;;18.88;10.23;;;;;;;1.46;98.61;92978.72;5033654;28;20048;-39
2023/01/16 06:32:08;;;;;;;18.30;10.98;;;;;;;1.47;98.90;92980.94;5045994;28;20040;-39
2023/01/16 06:34:33;;;;;;;16.65;9.30;;;;;;;1.70;98.64;92986.28;5044973;28;20455;-40
2023/01/16 06:36:59;;;;;;;21.13;10.60;;;;;;;1.85;97.40;92989.41;5026612;28;20054;-39
2023/01/16 06:39:24;;;;;;;23.65;11.68;;;;;;;1.84;96.96;92975.06;5026430;28;20084;-39
2023/01/16 06:41:50;;;;;;;15.35;9.05;;;;;;;1.90;96.20;92981.22;5026531;28;20770;-39
2023/01/16 06:44:15;;;;;;;17.27;9.27;;;;;;;1.88;94.84;92981.00;5026445;28;20033;-40
2023/01/16 06:46:41;;;;;;;19.65;11.07;;;;;;;1.95;94.60;92983.16;5026211;28;20029;-39
2023/01/16 06:49:06;;;;;;;15.13;10.35;;;;;;;2.08;95.08;92999.66;5026477;28;20108;-40
2023/01/16 06:51:32;;;;;;;18.08;10.73;;;;;;;2.24;95.09;93003.53;5026340;28;20045;-39
2023/01/16 06:53:57;;;;;;;18.10;10.88;;;;;;;2.36;94.21;92994.03;5026591;28;20033;-40
2023/01/16 06:56:23;;;;;;;15.60;10.10;;;;;;;2.38;93.79;92994.28;5026875;28;20567;-39
2023/01/16 06:58:49;;;;;;;16.95;10.50;;;;;;;2.52;90.73;92987.72;5026583;28;20208;-39
2023/01/16 07:01:15;;;;;;;12.90;7.35;;;;;;;2.42;91.04;92981.13;5026724;28;20030;-39
2023/01/16 07:03:40;;;;;;;14.13;8.40;;;;;;;2.44;91.06;92972.44;5026716;28;20021;-39
2023/01/16 07:06:05;;;;;;;15.15;8.48;;;;;;;2.56;90.92;92960.91;5026372;28;20544;-39
2023/01/16 07:08:31;;;;;;;13.25;8.25;;;;;;;2.74;88.50;92959.53;5026761;28;20041;-39
2023/01/16 07:11:00;;;;;;;13.50;7.65;;;;;;;2.70;89.12;92968.00;5026443;28;20714;-39
2023/01/16 07:13:29;;;;;;;13.60;8.45;;;;;;;2.97;88.32;92971.69;5026054;28;20060;-39
2023/01/16 07:24:10;;;;;;;12.50;7.95;;;;;;;4.71;79.52;93008.63;5025181;28;20528;-40
2023/01/16 07:26:37;;;;;;;14.10;9.90;;;;;;;4.49;79.71;93017.94;5028669;28;20469;-39
2023/01/16 07:29:03;;;;;;;10.95;8.52;;;;;;;4.59;79.88;93010.09;5030127;28;20128;-40
2023/01/16 07:31:30;;;;;;;10.30;6.65;;;;;;;4.54;78.00;93006.19;5048534;28;20025;-40
2023/01/16 07:33:56;;;;;;;12.40;7.38;;;;;;;4.20;78.38;92999.00;5049486;28;20087;-39
2023/01/16 07:36:21;;;;;;;13.30;6.95;;;;;;;4.26;78.28;92986.72;5033295;28;20061;-40
2023/01/16 07:38:47;;;;;;;12.55;7.60;;;;;;;4.45;78.26;92987.44;5029679;28;20025;-39
2023/01/16 07:41:13;;;;;;;9.10;5.85;;;;;;;4.30;77.73;92981.69;5029481;28;20825;-40
2023/01/16 07:43:39;;;;;;;11.85;8.05;;;;;;;3.95;78.16;92973.00;5029795;28;20033;-39
2023/01/16 07:46:05;;;;;;;15.45;7.82;;;;;;;4.20;78.17;92975.13;5028813;28;20038;-39
2023/01/16 07:48:30;;;;;;;13.20;8.35;;;;;;;4.45;78.21;92979.22;5029379;28;20029;-40
2023/01/16 07:50:57;;;;;;;13.25;6.38;;;;;;;4.40;76.14;92974.56;5029780;28;20025;-40
2023/01/16 07:53:25;;;;;;;10.13;6.75;;;;;;;4.21;77.20;92973.88;5029491;28;20029;-40
2023/01/16 07:55:54;;;;;;;8.45;5.78;;;;;;;4.44;75.29;92966.81;5029242;28;20031;-39
2023/01/16 07:58:20;;;;;;;8.80;5.78;;;;;;;4.77;73.70;92970.25;5029581;28;20025;-40
2023/01/16 08:00:46;;;;;;;9.73;6.68;;;;;;;5.29;73.67;92962.09;5028779;28;20104;-40
2023/01/16 08:03:13;;;;;;;11.48;6.93;;;;;;;5.69;71.89;92960.84;5029138;28;20120;-40
2023/01/16 08:05:38;;;;;;;9.43;7.13;;;;;;;6.04;71.68;92960.34;5028889;28;20074;-40
2023/01/16 08:08:04;;;;;;;10.35;7.90;;;;;;;6.05;70.04;92975.53;5029101;28;20033;-40
2023/01/16 08:10:30;;;;;;;9.23;6.38;;;;;;;5.88;69.61;92975.16;5028964;28;20478;-40
2023/01/16 08:12:55;;;;;;;7.22;4.57;;;;;;;5.82;66.60;92962.81;5028841;28;20029;-40
2023/01/16 08:15:21;;;;;;;11.30;5.85;;;;;;;5.51;68.03;92966.44;5028941;28;20113;-40
2023/01/16 08:17:46;;;;;;;7.47;5.40;;;;;;;5.24;68.13;92963.69;5028867;28;20108;-40
2023/01/16 08:20:12;;;;;;;8.60;4.90;;;;;;;5.30;70.29;92974.53;5028707;28;20029;-39
2023/01/16 08:22:44;;;;;;;7.63;5.82;;;;;;;5.77;67.53;92969.13;5028701;28;20075;-40
2023/01/16 08:25:10;;;;;;;5.53;4.30;;;;;;;6.20;64.94;92964.00;5028899;28;20493;-40
2023/01/16 08:27:36;;;;;;;7.53;5.38;;;;;;;6.79;63.42;92960.38;5028896;28;20489;-40
2023/01/16 08:30:02;;;;;;;8.23;5.80;;;;;;;7.36;62.54;92946.72;5028213;28;20032;-40
2023/01/16 08:32:27;;;;;;;8.93;4.82;;;;;;;8.13;57.25;92939.00;5028979;28;20032;-40
2023/01/16 08:34:52;;;;;;;6.68;3.95;;;;;;;7.74;57.92;92922.91;5032368;28;20024;-40
2023/01/16 08:37:18;;;;;;;6.78;5.10;;;;;;;6.99;59.56;92936.94;5047901;28;20028;-40
2023/01/16 08:39:43;;;;;;;5.68;4.18;;;;;;;6.75;60.42;92945.53;5031734;28;20501;-40
2023/01/16 08:53:05;;;;;;;7.28;4.57;;;;;;;6.26;62.19;92912.53;5028515;28;20076;-40
2023/01/16 08:55:31;;;;;;;8.05;5.25;;;;;;;6.42;62.92;92907.94;5028300;28;20673;-40
2023/01/16 08:57:59;;;;;;;7.07;5.70;;;;;;;6.65;62.04;92906.09;5027863;28;20034;-40
2023/01/16 09:00:28;;;;;;;9.60;5.45;;;;;;;6.84;61.85;92912.13;5028127;28;20095;-40
2023/01/16 09:02:56;;;;;;;6.43;4.63;;;;;;;7.33;59.99;92943.03;5028073;28;20025;-40
2023/01/16 09:05:22;;;;;;;7.57;5.47;;;;;;;7.36;58.71;92936.44;5027671;28;20539;-40
2023/01/16 09:07:47;;;;;;;7.25;5.13;;;;;;;7.13;59.81;92921.84;5027710;28;20030;-40
2023/01/16 09:10:13;;;;;;;5.57;4.95;;;;;;;6.81;60.22;92910.44;5027953;28;20028;-40
2023/01/16 09:15:23;;;;;;;12.30;6.28;;;;;;;7.04;59.99;92886.63;5028265;28;20040;-40
2023/01/16 09:17:49;;;;;;;5.40;4.80;;;;;;;7.64;58.13;92875.25;5027405;28;20033;-40
2023/01/16 09:20:14;;;;;;;6.55;4.13;;;;;;;7.07;59.28;92869.09;5027061;28;20026;-40
2023/01/16 09:22:40;;;;;;;8.20;5.78;;;;;;;6.49;61.74;92861.38;5027707;28;20025;-40
2023/01/16 09:25:06;;;;;;;10.00;5.53;;;;;;;6.33;62.41;92864.53;5027601;28;20452;-40
2023/01/16 09:27:32;;;;;;;11.50;6.97;;;;;;;6.09;62.80;92858.09;5027798;28;20018;-40
2023/01/16 09:29:58;;;;;;;8.38;6.22;;;;;;;6.05;63.60;92860.44;5027397;28;20030;-40
2023/01/16 09:32:23;;;;;;;12.77;7.75;;;;;;;6.10;63.31;92859.59;5027221;28;20109;-40
2023/01/16 09:34:49;;;;;;;8.43;6.65;;;;;;;6.09;63.71;92851.88;5030879;28;20029;-40
2023/01/16 09:37:14;;;;;;;12.68;6.43;;;;;;;6.04;63.19;92861.69;5047405;28;20493;-40
2023/01/16 09:39:40;;;;;;;8.07;5.47;;;;;;;5.41;64.79;92864.84;5028218;28;20029;-39
2023/01/16 09:45:16;;;;;;;14.90;6.25;;;;;;;5.53;65.58;92866.06;5027129;28;20064;-40
2023/01/16 09:47:45;;;;;;;10.05;6.18;;;;;;;5.17;65.79;92856.88;5026743;28;20026;-40
2023/01/16 09:50:32;;;;;;;9.10;6.05;;;;;;;5.25;66.62;92852.22;5025670;28;20021;-39
2023/01/16 09:58:43;;;;;;;8.95;6.30;;;;;;;5.03;67.61;92847.19;5027286;28;20134;-40
2023/01/16 10:01:14;;;;;;;8.40;6.35;;;;;;;5.21;67.53;92827.19;5025489;28;20033;-39
2023/01/16 10:03:42;;;;;;;9.63;5.85;;;;;;;5.37;65.82;92828.84;5027349;28;20298;-40
2023/01/16 10:06:31;;;;;;;6.03;4.63;;;;;;;5.42;65.03;92825.22;5026841;28;20036;-39
2023/01/16 10:09:07;;;;;;;7.38;5.50;;;;;;;5.45;66.52;92824.19;5025444;28;20435;-39
2023/01/16 10:11:52;;;;;;;11.60;5.63;;;;;;;5.63;64.97;92825.28;5026957;28;20137;-40
2023/01/16 10:14:36;;;;;;;8.15;5.35;;;;;;;5.80;64.55;92815.44;5025308;28;20085;-40
2023/01/16 10:17:01;;;;;;;8.38;5.38;;;;;;;5.77;63.97;92805.53;5025938;28;20033;-39
2023/01/16 10:19:39;;;;;;;9.80;6.78;;;;;;;5.56;65.22;92804.03;5026832;28;20521;-39
2023/01/16 10:22:17;;;;;;;7.68;5.25;;;;;;;5.57;65.00;92817.19;5027196;28;20460;-40
2023/01/16 10:24:51;;;;;;;10.75;6.40;;;;;;;5.65;65.54;92809.78;5027237;28;20034;-40
2023/01/16 10:27:43;;;;;;;9.98;5.15;;;;;;;5.68;63.15;92803.25;5027233;28;20033;-39
2023/01/16 10:30:19;;;;;;;7.20;5.38;;;;;;;5.35;64.88;92807.47;5021671;28;20091;-39
2023/01/16 10:32:55;;;;;;;6.88;4.47;;;;;;;5.50;64.29;92806.88;5025729;28;20823;-39
2023/01/16 10:35:25;;;;;;;7.53;5.40;;;;;;;5.48;64.44;92797.75;5026432;28;20436;-40
2023/01/16 10:37:50;;;;;;;6.57;5.03;;;;;;;5.39;65.06;92779.78;5025161;28;20040;-40
2023/01/16 10:40:25;;;;;;;8.35;5.72;;;;;;;5.24;65.61;92780.31;5025613;28;20101;-40
2023/01/16 10:51:41;;;;;;;9.57;6.75;;;;;;;5.04;67.33;92761.13;5026794;28;20037;-39
2023/01/16 10:54:06;;;;;;;17.35;8.20;;;;;;;5.40;68.00;92759.34;5026684;28;20033;-40
2023/01/16 10:56:38;;;;;;;13.07;7.00;;;;;;;5.24;67.44;92747.50;5025241;28;20021;-39
2023/01/16 10:59:03;;;;;;;10.65;7.90;;;;;;;5.58;67.09;92744.00;5026891;28;20116;-39
2023/01/16 11:01:30;;;;;;;10.15;7.22;;;;;;;5.34;66.44;92734.84;5030342;28;20021;-39
2023/01/16 11:03:58;;;;;;;12.20;7.80;;;;;;;5.47;68.11;92741.50;5029082;28;20025;-40
2023/01/16 11:06:26;;;;;;;11.55;8.20;;;;;;;6.26;65.47;92737.09;5029260;28;20236;-40
2023/01/16 11:09:15;;;;;;;10.43;6.28;;;;;;;6.26;64.36;92723.38;5029975;28;20152;-39
2023/01/16 11:20:31;;;;;;;11.88;8.05;;;;;;;6.22;65.19;92705.81;5025028;28;20040;-40
2023/01/16 11:23:18;;;;;;;14.88;9.85;;;;;;;6.44;64.63;92705.22;5030097;28;20101;-40
2023/01/16 11:25:46;;;;;;;11.15;7.47;;;;;;;5.99;64.47;92698.19;5029228;28;20042;-39
2023/01/16 11:28:23;;;;;;;10.45;7.53;;;;;;;5.96;64.32;92676.59;5030259;28;20495;-40
2023/01/16 11:30:52;;;;;;;11.57;8.02;;;;;;;5.78;65.55;92677.53;5028386;28;20017;-40
2023/01/16 11:33:23;;;;;;;9.90;6.82;;;;;;;5.98;64.64;92668.56;5029984;28;20029;-39
2023/01/16 11:35:54;;;;;;;10.10;6.38;;;;;;;5.60;65.44;92657.31;5029386;28;20136;-39
2023/01/16 11:38:21;;;;;;;12.55;7.38;;;;;;;5.36;67.05;92660.41;5027951;28;20525;-40
2023/01/16 11:40:48;;;;;;;14.00;7.30;;;;;;;5.25;67.08;92644.25;5028373;28;20032;-39
2023/01/16 11:46:11;;;;;;;11.43;7.53;;;;;;;5.53;66.58;92663.47;5028242;28;20112;-40
2023/01/16 11:48:42;;;;;;;13.13;7.90;;;;;;;6.01;66.59;92642.84;5030039;28;20096;-40
2023/01/16 11:51:16;;;;;;;9.55;6.72;;;;;;;6.12;65.16;92653.50;5029457;28;20029;-40
2023/01/16 11:53:45;;;;;;;12.15;7.95;;;;;;;6.16;64.73;92647.69;5029002;28;20025;-40
2023/01/16 11:56:38;;;;;;;6.47;5.03;;;;;;;6.25;63.30;92647.19;5029663;28;20021;-40
2023/01/16 11:59:15;;;;;;;10.23;7.32;;;;;;;6.63;63.44;92646.09;5029345;28;20083;-39
2023/01/16 12:05:53;;;;;;;10.15;7.60;;;;;;;6.06;64.12;92628.97;5029662;28;20037;-39
2023/01/16 12:07:40;;;;;;;12.32;7.85;;;;;;;5.62;65.92;92621.19;5027544;28;20030;-40
2023/01/16 12:10:41;;;;;;;12.32;7.93;;;;;;;5.52;67.06;92644.84;5028684;28;20572;-40
2023/01/16 12:16:11;;;;;;;13.07;8.18;;;;;;;5.39;68.04;92631.97;5028090;28;20514;-39
2023/01/16 12:18:44;;;;;;;11.43;8.00;;;;;;;5.75;67.13;92630.03;5029657;28;20025;-40
2023/01/16 12:21:29;;;;;;;13.93;8.20;;;;;;;6.04;65.48;92628.06;5029411;28;20037;-39
2023/01/16 12:24:25;;;;;;;9.77;7.53;;;;;;;5.54;66.33;92614.91;5027628;28;20112;-40
2023/01/16 12:27:32;;;;;;;11.90;8.27;;;;;;;5.62;67.21;92626.66;5029115;28;20025;-40
2023/01/16 12:30:14;;;;;;;15.18;9.68;;;;;;;5.74;67.69;92625.81;5023594;28;20044;-40
2023/01/16 12:33:11;;;;;;;17.17;9.43;;;;;;;4.94;70.02;92634.25;5048049;28;20064;-40
2023/01/16 12:35:54;;;;;;;13.32;7.72;;;;;;;4.87;69.97;92632.94;5023386;28;20060;-39
2023/01/16 12:38:36;;;;;;;12.18;7.75;;;;;;;4.95;68.97;92630.28;5027693;28;20029;-40
2023/01/16 12:44:08;;;;;;;12.48;8.05;;;;;;;4.84;69.38;92627.78;5027476;28;20160;-40
2023/01/16 12:46:43;;;;;;;12.70;8.88;;;;;;;4.49;70.89;92629.78;5028280;28;20032;-40
2023/01/16 12:49:46;;;;;;;14.18;9.32;;;;;;;4.86;72.02;92630.72;5027023;28;20033;-39